sensor_id;sensor_type;location;lat;lon;timestamp;P1;durP1;ratioP1;P2;durP2;ratioP2
75774;SDS011;64505;51.458;7.556;2023-04-15T00:00:30;9.07;;;4.80;;
75774;SDS011;64505;51.458;7.556;2023-04-15T00:02:31;10.13;;;5.45;;
75774;SDS011;64505;51.458;7.556;2023-04-15T00:04:33;8.82;;;5.32;;
75774;SDS011;64505;51.458;7.556;2023-04-15T00:06:35;12.63;;;5.78;;
75774;SDS011;64505;51.458;7.556;2023-04-15T00:08:37;11.25;;;5.35;;
75774;SDS011;64505;51.458;7.556;2023-04-15T00:10:39;9.25;;;5.15;;
75774;SDS011;64505;51.458;7.556;2023-04-15T00:12:40;9.60;;;5.30;;
75774;SDS011;64505;51.458;7.556;2023-04-15T00:14:42;10.43;;;5.45;;
75774;SDS011;64505;51.458;7.556;2023-04-15T00:16:45;11.48;;;5.97;;
75774;SDS011;64505;51.458;7.556;2023-04-15T00:18:46;11.63;;;5.38;;
75774;SDS011;64505;51.458;7.556;2023-04-15T00:20:47;8.52;;;4.97;;
75774;SDS011;64505;51.458;7.556;2023-04-15T00:22:49;11.73;;;5.57;;
75774;SDS011;64505;51.458;7.556;2023-04-15T00:24:51;10.80;;;5.35;;
75774;SDS011;64505;51.458;7.556;2023-04-15T00:26:53;10.20;;;5.22;;
75774;SDS011;64505;51.458;7.556;2023-04-15T00:28:54;10.00;;;5.03;;
75774;SDS011;64505;51.458;7.556;2023-04-15T00:30:56;9.73;;;5.10;;
75774;SDS011;64505;51.458;7.556;2023-04-15T00:32:57;9.45;;;5.13;;
75774;SDS011;64505;51.458;7.556;2023-04-15T00:34:59;10.88;;;5.10;;
75774;SDS011;64505;51.458;7.556;2023-04-15T00:37:01;10.25;;;5.38;;
75774;SDS011;64505;51.458;7.556;2023-04-15T00:39:02;10.55;;;5.15;;
75774;SDS011;64505;51.458;7.556;2023-04-15T00:41:05;10.40;;;4.85;;
75774;SDS011;64505;51.458;7.556;2023-04-15T00:43:07;9.27;;;5.13;;
75774;SDS011;64505;51.458;7.556;2023-04-15T00:45:09;13.75;;;5.18;;
75774;SDS011;64505;51.458;7.556;2023-04-15T00:47:10;9.73;;;5.20;;
75774;SDS011;64505;51.458;7.556;2023-04-15T00:49:12;9.40;;;4.60;;
75774;SDS011;64505;51.458;7.556;2023-04-15T00:51:14;10.73;;;5.22;;
75774;SDS011;64505;51.458;7.556;2023-04-15T00:53:16;10.20;;;5.13;;
75774;SDS011;64505;51.458;7.556;2023-04-15T00:55:17;10.23;;;5.00;;
75774;SDS011;64505;51.458;7.556;2023-04-15T00:57:19;9.52;;;5.25;;
75774;SDS011;64505;51.458;7.556;2023-04-15T00:59:22;9.90;;;4.95;;
75774;SDS011;64505;51.458;7.556;2023-04-15T01:01:24;8.23;;;4.88;;
75774;SDS011;64505;51.458;7.556;2023-04-15T01:03:26;8.48;;;4.95;;
75774;SDS011;64505;51.458;7.556;2023-04-15T01:05:29;9.93;;;5.18;;
75774;SDS011;64505;51.458;7.556;2023-04-15T01:07:31;8.20;;;4.85;;
75774;SDS011;64505;51.458;7.556;2023-04-15T01:09:32;11.25;;;5.03;;
75774;SDS011;64505;51.458;7.556;2023-04-15T01:11:34;10.95;;;4.90;;
75774;SDS011;64505;51.458;7.556;2023-04-15T01:13:35;10.07;;;5.00;;
75774;SDS011;64505;51.458;7.556;2023-04-15T01:15:37;8.85;;;4.63;;
75774;SDS011;64505;51.458;7.556;2023-04-15T01:17:39;7.50;;;4.32;;
75774;SDS011;64505;51.458;7.556;2023-04-15T01:19:40;7.53;;;4.65;;
75774;SDS011;64505;51.458;7.556;2023-04-15T01:21:42;8.63;;;4.88;;
75774;SDS011;64505;51.458;7.556;2023-04-15T01:23:44;7.85;;;4.85;;
75774;SDS011;64505;51.458;7.556;2023-04-15T01:25:48;8.88;;;4.95;;
75774;SDS011;64505;51.458;7.556;2023-04-15T01:27:50;7.78;;;4.70;;
75774;SDS011;64505;51.458;7.556;2023-04-15T01:29:51;11.52;;;5.20;;
75774;SDS011;64505;51.458;7.556;2023-04-15T01:31:53;8.50;;;4.97;;
75774;SDS011;64505;51.458;7.556;2023-04-15T01:33:56;11.30;;;4.93;;
75774;SDS011;64505;51.458;7.556;2023-04-15T01:35:57;11.00;;;5.35;;
75774;SDS011;64505;51.458;7.556;2023-04-15T01:38:03;9.18;;;5.57;;
75774;SDS011;64505;51.458;7.556;2023-04-15T01:40:06;10.30;;;5.07;;
75774;SDS011;64505;51.458;7.556;2023-04-15T01:42:08;10.10;;;5.15;;
75774;SDS011;64505;51.458;7.556;2023-04-15T01:44:10;12.02;;;5.30;;
75774;SDS011;64505;51.458;7.556;2023-04-15T01:46:11;9.68;;;5.20;;
75774;SDS011;64505;51.458;7.556;2023-04-15T01:48:13;8.35;;;4.68;;
75774;SDS011;64505;51.458;7.556;2023-04-15T01:50:14;11.95;;;5.45;;
75774;SDS011;64505;51.458;7.556;2023-04-15T01:52:16;10.30;;;5.13;;
75774;SDS011;64505;51.458;7.556;2023-04-15T01:54:17;10.48;;;5.30;;
75774;SDS011;64505;51.458;7.556;2023-04-15T01:56:19;11.48;;;4.85;;
75774;SDS011;64505;51.458;7.556;2023-04-15T01:58:20;11.48;;;5.43;;
75774;SDS011;64505;51.458;7.556;2023-04-15T02:00:22;13.73;;;6.18;;
75774;SDS011;64505;51.458;7.556;2023-04-15T02:02:24;13.55;;;5.88;;
75774;SDS011;64505;51.458;7.556;2023-04-15T02:04:26;12.15;;;6.55;;
75774;SDS011;64505;51.458;7.556;2023-04-15T02:06:28;13.40;;;5.90;;
75774;SDS011;64505;51.458;7.556;2023-04-15T02:08:29;11.48;;;5.60;;
75774;SDS011;64505;51.458;7.556;2023-04-15T02:10:30;10.65;;;6.20;;
75774;SDS011;64505;51.458;7.556;2023-04-15T02:12:32;9.88;;;5.55;;
75774;SDS011;64505;51.458;7.556;2023-04-15T02:14:34;11.65;;;6.30;;
75774;SDS011;64505;51.458;7.556;2023-04-15T02:16:35;12.27;;;6.30;;
75774;SDS011;64505;51.458;7.556;2023-04-15T02:18:37;13.70;;;6.47;;
75774;SDS011;64505;51.458;7.556;2023-04-15T02:20:38;11.85;;;6.63;;
75774;SDS011;64505;51.458;7.556;2023-04-15T02:22:40;11.55;;;6.43;;
75774;SDS011;64505;51.458;7.556;2023-04-15T02:24:41;13.23;;;6.00;;
75774;SDS011;64505;51.458;7.556;2023-04-15T02:26:42;10.98;;;6.50;;
75774;SDS011;64505;51.458;7.556;2023-04-15T02:28:44;11.88;;;6.88;;
75774;SDS011;64505;51.458;7.556;2023-04-15T02:30:50;13.18;;;6.82;;
75774;SDS011;64505;51.458;7.556;2023-04-15T02:32:53;11.27;;;6.53;;
75774;SDS011;64505;51.458;7.556;2023-04-15T02:34:54;11.23;;;6.43;;
75774;SDS011;64505;51.458;7.556;2023-04-15T02:36:56;14.32;;;6.60;;
75774;SDS011;64505;51.458;7.556;2023-04-15T02:38:57;14.93;;;6.93;;
75774;SDS011;64505;51.458;7.556;2023-04-15T02:41:00;13.88;;;6.70;;
75774;SDS011;64505;51.458;7.556;2023-04-15T02:43:01;14.25;;;6.40;;
75774;SDS011;64505;51.458;7.556;2023-04-15T02:45:03;14.15;;;7.03;;
75774;SDS011;64505;51.458;7.556;2023-04-15T02:47:06;11.95;;;6.85;;
75774;SDS011;64505;51.458;7.556;2023-04-15T02:49:07;14.48;;;7.32;;
75774;SDS011;64505;51.458;7.556;2023-04-15T02:51:16;13.20;;;7.55;;
75774;SDS011;64505;51.458;7.556;2023-04-15T02:53:20;11.13;;;6.22;;
75774;SDS011;64505;51.458;7.556;2023-04-15T02:55:21;11.35;;;6.60;;
75774;SDS011;64505;51.458;7.556;2023-04-15T02:57:23;12.48;;;6.75;;
75774;SDS011;64505;51.458;7.556;2023-04-15T02:59:24;14.40;;;7.32;;
75774;SDS011;64505;51.458;7.556;2023-04-15T03:01:25;11.70;;;6.55;;
75774;SDS011;64505;51.458;7.556;2023-04-15T03:03:27;12.48;;;6.32;;
75774;SDS011;64505;51.458;7.556;2023-04-15T03:05:29;13.13;;;6.18;;
75774;SDS011;64505;51.458;7.556;2023-04-15T03:07:30;12.25;;;6.72;;
75774;SDS011;64505;51.458;7.556;2023-04-15T03:09:32;12.82;;;6.75;;
75774;SDS011;64505;51.458;7.556;2023-04-15T03:11:33;14.05;;;6.32;;
75774;SDS011;64505;51.458;7.556;2023-04-15T03:13:37;11.77;;;6.97;;
75774;SDS011;64505;51.458;7.556;2023-04-15T03:15:39;10.98;;;6.57;;
75774;SDS011;64505;51.458;7.556;2023-04-15T03:17:41;13.82;;;6.93;;
75774;SDS011;64505;51.458;7.556;2023-04-15T03:19:42;9.90;;;6.30;;
75774;SDS011;64505;51.458;7.556;2023-04-15T03:21:44;12.57;;;5.93;;
75774;SDS011;64505;51.458;7.556;2023-04-15T03:23:45;10.80;;;6.30;;
75774;SDS011;64505;51.458;7.556;2023-04-15T03:25:47;12.23;;;6.10;;
75774;SDS011;64505;51.458;7.556;2023-04-15T03:27:48;11.02;;;6.25;;
75774;SDS011;64505;51.458;7.556;2023-04-15T03:29:50;12.52;;;6.15;;
75774;SDS011;64505;51.458;7.556;2023-04-15T03:31:51;10.38;;;5.60;;
75774;SDS011;64505;51.458;7.556;2023-04-15T03:33:53;15.30;;;6.50;;
75774;SDS011;64505;51.458;7.556;2023-04-15T03:35:55;12.23;;;6.03;;
75774;SDS011;64505;51.458;7.556;2023-04-15T03:37:56;13.02;;;6.25;;
75774;SDS011;64505;51.458;7.556;2023-04-15T03:39:58;15.10;;;6.70;;
75774;SDS011;64505;51.458;7.556;2023-04-15T03:41:59;10.23;;;5.40;;
75774;SDS011;64505;51.458;7.556;2023-04-15T03:44:01;11.82;;;6.18;;
75774;SDS011;64505;51.458;7.556;2023-04-15T03:46:03;9.57;;;5.63;;
75774;SDS011;64505;51.458;7.556;2023-04-15T03:48:05;11.73;;;6.45;;
75774;SDS011;64505;51.458;7.556;2023-04-15T03:50:18;11.48;;;6.00;;
75774;SDS011;64505;51.458;7.556;2023-04-15T03:52:19;11.57;;;6.30;;
75774;SDS011;64505;51.458;7.556;2023-04-15T03:54:20;12.50;;;5.72;;
75774;SDS011;64505;51.458;7.556;2023-04-15T03:56:22;12.32;;;6.72;;
75774;SDS011;64505;51.458;7.556;2023-04-15T03:58:23;11.18;;;6.05;;
75774;SDS011;64505;51.458;7.556;2023-04-15T04:00:25;15.52;;;6.50;;
75774;SDS011;64505;51.458;7.556;2023-04-15T04:02:26;11.85;;;6.05;;
75774;SDS011;64505;51.458;7.556;2023-04-15T04:04:28;12.70;;;6.88;;
75774;SDS011;64505;51.458;7.556;2023-04-15T04:06:30;12.80;;;7.32;;
75774;SDS011;64505;51.458;7.556;2023-04-15T04:08:31;12.70;;;6.38;;
75774;SDS011;64505;51.458;7.556;2023-04-15T04:10:33;12.38;;;6.72;;
75774;SDS011;64505;51.458;7.556;2023-04-15T04:12:34;14.00;;;7.22;;
75774;SDS011;64505;51.458;7.556;2023-04-15T04:14:36;14.93;;;7.13;;
75774;SDS011;64505;51.458;7.556;2023-04-15T04:16:37;13.02;;;6.65;;
75774;SDS011;64505;51.458;7.556;2023-04-15T04:18:39;13.13;;;6.90;;
75774;SDS011;64505;51.458;7.556;2023-04-15T04:20:40;12.20;;;6.60;;
75774;SDS011;64505;51.458;7.556;2023-04-15T04:22:42;15.13;;;6.43;;
75774;SDS011;64505;51.458;7.556;2023-04-15T04:24:44;13.80;;;6.50;;
75774;SDS011;64505;51.458;7.556;2023-04-15T04:26:45;10.80;;;6.82;;
75774;SDS011;64505;51.458;7.556;2023-04-15T04:28:46;11.50;;;6.57;;
75774;SDS011;64505;51.458;7.556;2023-04-15T04:30:48;13.27;;;7.18;;
75774;SDS011;64505;51.458;7.556;2023-04-15T04:32:49;12.02;;;6.95;;
75774;SDS011;64505;51.458;7.556;2023-04-15T04:34:51;12.45;;;6.10;;
75774;SDS011;64505;51.458;7.556;2023-04-15T04:36:53;12.57;;;6.53;;
75774;SDS011;64505;51.458;7.556;2023-04-15T04:38:54;11.88;;;6.55;;
75774;SDS011;64505;51.458;7.556;2023-04-15T04:40:56;16.83;;;8.35;;
75774;SDS011;64505;51.458;7.556;2023-04-15T04:42:57;14.93;;;7.22;;
75774;SDS011;64505;51.458;7.556;2023-04-15T04:44:59;13.88;;;8.05;;
75774;SDS011;64505;51.458;7.556;2023-04-15T04:47:00;14.60;;;7.60;;
75774;SDS011;64505;51.458;7.556;2023-04-15T04:49:02;20.90;;;10.52;;
75774;SDS011;64505;51.458;7.556;2023-04-15T04:51:03;15.10;;;7.18;;
75774;SDS011;64505;51.458;7.556;2023-04-15T04:53:05;14.20;;;6.72;;
75774;SDS011;64505;51.458;7.556;2023-04-15T04:55:07;13.13;;;7.15;;
75774;SDS011;64505;51.458;7.556;2023-04-15T04:57:08;13.88;;;7.18;;
75774;SDS011;64505;51.458;7.556;2023-04-15T04:59:10;13.88;;;7.82;;
75774;SDS011;64505;51.458;7.556;2023-04-15T05:01:11;13.15;;;6.55;;
75774;SDS011;64505;51.458;7.556;2023-04-15T05:03:13;12.35;;;6.85;;
75774;SDS011;64505;51.458;7.556;2023-04-15T05:05:15;12.82;;;6.55;;
75774;SDS011;64505;51.458;7.556;2023-04-15T05:07:17;11.05;;;6.35;;
75774;SDS011;64505;51.458;7.556;2023-04-15T05:09:20;14.18;;;6.97;;
75774;SDS011;64505;51.458;7.556;2023-04-15T05:11:22;15.70;;;7.20;;
75774;SDS011;64505;51.458;7.556;2023-04-15T05:13:23;14.68;;;7.78;;
75774;SDS011;64505;51.458;7.556;2023-04-15T05:15:25;11.25;;;6.43;;
75774;SDS011;64505;51.458;7.556;2023-04-15T05:17:26;13.52;;;7.70;;
75774;SDS011;64505;51.458;7.556;2023-04-15T05:19:28;11.88;;;6.63;;
75774;SDS011;64505;51.458;7.556;2023-04-15T05:21:29;13.98;;;7.53;;
75774;SDS011;64505;51.458;7.556;2023-04-15T05:23:31;13.30;;;7.75;;
75774;SDS011;64505;51.458;7.556;2023-04-15T05:25:33;13.63;;;7.38;;
75774;SDS011;64505;51.458;7.556;2023-04-15T05:27:35;16.98;;;8.00;;
75774;SDS011;64505;51.458;7.556;2023-04-15T05:29:36;13.27;;;7.68;;
75774;SDS011;64505;51.458;7.556;2023-04-15T05:31:38;15.07;;;7.93;;
75774;SDS011;64505;51.458;7.556;2023-04-15T05:33:39;16.70;;;8.50;;
75774;SDS011;64505;51.458;7.556;2023-04-15T05:35:41;17.42;;;8.50;;
75774;SDS011;64505;51.458;7.556;2023-04-15T05:37:42;13.93;;;8.00;;
75774;SDS011;64505;51.458;7.556;2023-04-15T05:39:44;16.67;;;8.27;;
75774;SDS011;64505;51.458;7.556;2023-04-15T05:41:45;15.32;;;8.38;;
75774;SDS011;64505;51.458;7.556;2023-04-15T05:43:47;12.57;;;7.50;;
75774;SDS011;64505;51.458;7.556;2023-04-15T05:45:48;12.88;;;6.80;;
75774;SDS011;64505;51.458;7.556;2023-04-15T05:47:50;12.98;;;7.03;;
75774;SDS011;64505;51.458;7.556;2023-04-15T05:49:54;14.93;;;7.13;;
75774;SDS011;64505;51.458;7.556;2023-04-15T05:51:55;13.27;;;7.68;;
75774;SDS011;64505;51.458;7.556;2023-04-15T05:53:57;13.77;;;6.78;;
75774;SDS011;64505;51.458;7.556;2023-04-15T05:55:58;11.10;;;6.93;;
75774;SDS011;64505;51.458;7.556;2023-04-15T05:58:00;12.65;;;7.22;;
75774;SDS011;64505;51.458;7.556;2023-04-15T06:00:02;13.98;;;6.30;;
75774;SDS011;64505;51.458;7.556;2023-04-15T06:02:05;13.65;;;7.65;;
75774;SDS011;64505;51.458;7.556;2023-04-15T06:04:07;13.85;;;7.63;;
75774;SDS011;64505;51.458;7.556;2023-04-15T06:06:09;11.82;;;7.40;;
75774;SDS011;64505;51.458;7.556;2023-04-15T06:08:11;13.90;;;7.93;;
75774;SDS011;64505;51.458;7.556;2023-04-15T06:10:12;15.63;;;6.97;;
75774;SDS011;64505;51.458;7.556;2023-04-15T06:12:14;12.23;;;7.55;;
75774;SDS011;64505;51.458;7.556;2023-04-15T06:14:15;13.43;;;7.88;;
75774;SDS011;64505;51.458;7.556;2023-04-15T06:16:17;14.13;;;7.68;;
75774;SDS011;64505;51.458;7.556;2023-04-15T06:18:18;14.00;;;8.35;;
75774;SDS011;64505;51.458;7.556;2023-04-15T06:20:20;15.13;;;8.73;;
75774;SDS011;64505;51.458;7.556;2023-04-15T06:22:22;17.48;;;10.23;;
75774;SDS011;64505;51.458;7.556;2023-04-15T06:24:23;17.45;;;8.55;;
75774;SDS011;64505;51.458;7.556;2023-04-15T06:26:25;16.23;;;9.02;;
75774;SDS011;64505;51.458;7.556;2023-04-15T06:28:27;15.30;;;9.10;;
75774;SDS011;64505;51.458;7.556;2023-04-15T06:30:28;16.60;;;8.90;;
75774;SDS011;64505;51.458;7.556;2023-04-15T06:32:30;17.02;;;8.82;;
75774;SDS011;64505;51.458;7.556;2023-04-15T06:34:32;16.27;;;8.98;;
75774;SDS011;64505;51.458;7.556;2023-04-15T06:36:33;17.30;;;9.07;;
75774;SDS011;64505;51.458;7.556;2023-04-15T06:38:35;15.50;;;9.05;;
75774;SDS011;64505;51.458;7.556;2023-04-15T06:40:36;16.90;;;9.50;;
75774;SDS011;64505;51.458;7.556;2023-04-15T06:42:38;14.52;;;8.82;;
75774;SDS011;64505;51.458;7.556;2023-04-15T06:44:39;17.42;;;9.48;;
75774;SDS011;64505;51.458;7.556;2023-04-15T06:46:41;17.02;;;9.68;;
75774;SDS011;64505;51.458;7.556;2023-04-15T06:48:42;18.27;;;9.82;;
75774;SDS011;64505;51.458;7.556;2023-04-15T06:50:44;17.65;;;9.65;;
75774;SDS011;64505;51.458;7.556;2023-04-15T06:52:45;21.48;;;11.20;;
75774;SDS011;64505;51.458;7.556;2023-04-15T06:54:47;18.33;;;10.20;;
75774;SDS011;64505;51.458;7.556;2023-04-15T06:56:49;16.50;;;10.23;;
75774;SDS011;64505;51.458;7.556;2023-04-15T06:58:51;17.45;;;9.27;;
75774;SDS011;64505;51.458;7.556;2023-04-15T07:00:53;17.50;;;9.13;;
75774;SDS011;64505;51.458;7.556;2023-04-15T07:02:54;17.63;;;9.80;;
75774;SDS011;64505;51.458;7.556;2023-04-15T07:04:56;19.50;;;10.20;;
75774;SDS011;64505;51.458;7.556;2023-04-15T07:06:58;17.98;;;9.80;;
75774;SDS011;64505;51.458;7.556;2023-04-15T07:09:01;19.45;;;10.38;;
75774;SDS011;64505;51.458;7.556;2023-04-15T07:11:05;20.20;;;10.13;;
75774;SDS011;64505;51.458;7.556;2023-04-15T07:13:07;16.45;;;9.55;;
75774;SDS011;64505;51.458;7.556;2023-04-15T07:15:09;18.13;;;10.10;;
75774;SDS011;64505;51.458;7.556;2023-04-15T07:17:10;18.30;;;10.27;;
75774;SDS011;64505;51.458;7.556;2023-04-15T07:19:12;18.55;;;10.00;;
75774;SDS011;64505;51.458;7.556;2023-04-15T07:21:13;17.73;;;9.95;;
75774;SDS011;64505;51.458;7.556;2023-04-15T07:23:15;15.93;;;9.52;;
75774;SDS011;64505;51.458;7.556;2023-04-15T07:25:16;18.50;;;10.35;;
75774;SDS011;64505;51.458;7.556;2023-04-15T07:27:19;18.17;;;10.40;;
75774;SDS011;64505;51.458;7.556;2023-04-15T07:29:21;19.65;;;11.13;;
75774;SDS011;64505;51.458;7.556;2023-04-15T07:31:22;17.50;;;9.60;;
75774;SDS011;64505;51.458;7.556;2023-04-15T07:33:24;16.80;;;9.48;;
75774;SDS011;64505;51.458;7.556;2023-04-15T07:35:25;15.50;;;9.55;;
75774;SDS011;64505;51.458;7.556;2023-04-15T07:37:27;16.75;;;9.50;;
75774;SDS011;64505;51.458;7.556;2023-04-15T07:39:29;15.85;;;9.07;;
75774;SDS011;64505;51.458;7.556;2023-04-15T07:41:31;15.50;;;9.13;;
75774;SDS011;64505;51.458;7.556;2023-04-15T07:43:32;17.42;;;10.20;;
75774;SDS011;64505;51.458;7.556;2023-04-15T07:45:34;15.65;;;8.88;;
75774;SDS011;64505;51.458;7.556;2023-04-15T07:47:35;15.30;;;8.70;;
75774;SDS011;64505;51.458;7.556;2023-04-15T07:49:37;14.80;;;8.85;;
75774;SDS011;64505;51.458;7.556;2023-04-15T07:51:38;16.13;;;9.07;;
75774;SDS011;64505;51.458;7.556;2023-04-15T07:53:40;15.95;;;9.68;;
75774;SDS011;64505;51.458;7.556;2023-04-15T07:55:42;15.40;;;9.13;;
75774;SDS011;64505;51.458;7.556;2023-04-15T07:57:44;15.75;;;8.90;;
75774;SDS011;64505;51.458;7.556;2023-04-15T07:59:45;16.48;;;9.27;;
75774;SDS011;64505;51.458;7.556;2023-04-15T08:01:46;16.27;;;9.82;;
75774;SDS011;64505;51.458;7.556;2023-04-15T08:03:48;20.75;;;9.38;;
75774;SDS011;64505;51.458;7.556;2023-04-15T08:05:50;19.27;;;9.43;;
75774;SDS011;64505;51.458;7.556;2023-04-15T08:07:51;17.25;;;9.55;;
75774;SDS011;64505;51.458;7.556;2023-04-15T08:09:53;15.27;;;8.98;;
75774;SDS011;64505;51.458;7.556;2023-04-15T08:11:54;16.10;;;8.70;;
75774;SDS011;64505;51.458;7.556;2023-04-15T08:13:57;18.20;;;9.27;;
75774;SDS011;64505;51.458;7.556;2023-04-15T08:16:15;17.70;;;8.32;;
75774;SDS011;64505;51.458;7.556;2023-04-15T08:18:21;14.38;;;8.05;;
75774;SDS011;64505;51.458;7.556;2023-04-15T08:20:22;14.45;;;7.85;;
75774;SDS011;64505;51.458;7.556;2023-04-15T08:22:24;12.90;;;7.68;;
75774;SDS011;64505;51.458;7.556;2023-04-15T08:24:25;13.93;;;8.73;;
75774;SDS011;64505;51.458;7.556;2023-04-15T08:26:27;13.68;;;7.75;;
75774;SDS011;64505;51.458;7.556;2023-04-15T08:28:29;15.45;;;8.98;;
75774;SDS011;64505;51.458;7.556;2023-04-15T08:30:30;13.13;;;7.85;;
75774;SDS011;64505;51.458;7.556;2023-04-15T08:32:32;15.45;;;7.68;;
75774;SDS011;64505;51.458;7.556;2023-04-15T08:34:33;12.48;;;7.50;;
75774;SDS011;64505;51.458;7.556;2023-04-15T08:36:35;12.00;;;7.70;;
75774;SDS011;64505;51.458;7.556;2023-04-15T08:38:50;15.85;;;7.32;;
75774;SDS011;64505;51.458;7.556;2023-04-15T08:40:51;14.43;;;7.68;;
75774;SDS011;64505;51.458;7.556;2023-04-15T08:42:52;12.23;;;7.45;;
75774;SDS011;64505;51.458;7.556;2023-04-15T08:44:58;14.88;;;8.35;;
75774;SDS011;64505;51.458;7.556;2023-04-15T08:47:01;12.07;;;6.55;;
75774;SDS011;64505;51.458;7.556;2023-04-15T08:49:04;13.65;;;7.25;;
75774;SDS011;64505;51.458;7.556;2023-04-15T08:51:05;12.85;;;6.93;;
75774;SDS011;64505;51.458;7.556;2023-04-15T08:53:08;13.02;;;6.65;;
75774;SDS011;64505;51.458;7.556;2023-04-15T08:55:11;11.95;;;6.63;;
75774;SDS011;64505;51.458;7.556;2023-04-15T08:57:14;12.60;;;6.60;;
75774;SDS011;64505;51.458;7.556;2023-04-15T08:59:16;13.55;;;7.50;;
75774;SDS011;64505;51.458;7.556;2023-04-15T09:01:18;11.52;;;6.20;;
75774;SDS011;64505;51.458;7.556;2023-04-15T09:03:20;11.10;;;6.18;;
75774;SDS011;64505;51.458;7.556;2023-04-15T09:05:23;11.20;;;6.18;;
75774;SDS011;64505;51.458;7.556;2023-04-15T09:07:25;12.20;;;6.97;;
75774;SDS011;64505;51.458;7.556;2023-04-15T09:09:27;11.52;;;6.22;;
75774;SDS011;64505;51.458;7.556;2023-04-15T09:11:29;11.88;;;6.55;;
75774;SDS011;64505;51.458;7.556;2023-04-15T09:13:31;11.35;;;6.05;;
75774;SDS011;64505;51.458;7.556;2023-04-15T09:15:33;9.65;;;5.75;;
75774;SDS011;64505;51.458;7.556;2023-04-15T09:17:42;13.20;;;6.22;;
75774;SDS011;64505;51.458;7.556;2023-04-15T09:19:44;10.48;;;6.10;;
75774;SDS011;64505;51.458;7.556;2023-04-15T09:21:46;11.32;;;6.22;;
75774;SDS011;64505;51.458;7.556;2023-04-15T09:23:57;10.63;;;6.13;;
75774;SDS011;64505;51.458;7.556;2023-04-15T09:26:01;10.10;;;6.03;;
75774;SDS011;64505;51.458;7.556;2023-04-15T09:28:02;10.10;;;5.70;;
75774;SDS011;64505;51.458;7.556;2023-04-15T09:30:06;10.00;;;6.10;;
75774;SDS011;64505;51.458;7.556;2023-04-15T09:32:13;10.57;;;6.10;;
75774;SDS011;64505;51.458;7.556;2023-04-15T09:34:15;10.32;;;5.82;;
75774;SDS011;64505;51.458;7.556;2023-04-15T09:36:18;10.02;;;6.25;;
75774;SDS011;64505;51.458;7.556;2023-04-15T09:38:19;11.80;;;6.43;;
75774;SDS011;64505;51.458;7.556;2023-04-15T09:40:33;10.95;;;7.10;;
75774;SDS011;64505;51.458;7.556;2023-04-15T09:42:36;11.80;;;6.13;;
75774;SDS011;64505;51.458;7.556;2023-04-15T09:44:53;10.43;;;6.60;;
75774;SDS011;64505;51.458;7.556;2023-04-15T09:46:55;12.23;;;6.20;;
75774;SDS011;64505;51.458;7.556;2023-04-15T09:49:09;12.20;;;6.97;;
75774;SDS011;64505;51.458;7.556;2023-04-15T09:51:11;11.65;;;7.05;;
75774;SDS011;64505;51.458;7.556;2023-04-15T09:53:17;11.23;;;6.85;;
75774;SDS011;64505;51.458;7.556;2023-04-15T09:55:19;10.43;;;6.75;;
75774;SDS011;64505;51.458;7.556;2023-04-15T09:57:21;10.63;;;6.75;;
75774;SDS011;64505;51.458;7.556;2023-04-15T09:59:23;11.60;;;7.07;;
75774;SDS011;64505;51.458;7.556;2023-04-15T10:01:25;11.57;;;7.43;;
75774;SDS011;64505;51.458;7.556;2023-04-15T10:03:27;10.52;;;6.45;;
75774;SDS011;64505;51.458;7.556;2023-04-15T10:05:31;10.10;;;6.22;;
75774;SDS011;64505;51.458;7.556;2023-04-15T10:07:33;11.88;;;6.85;;
75774;SDS011;64505;51.458;7.556;2023-04-15T10:09:35;10.85;;;7.65;;
75774;SDS011;64505;51.458;7.556;2023-04-15T10:11:38;11.48;;;7.55;;
75774;SDS011;64505;51.458;7.556;2023-04-15T10:13:40;11.55;;;7.07;;
75774;SDS011;64505;51.458;7.556;2023-04-15T10:15:43;10.40;;;6.65;;
75774;SDS011;64505;51.458;7.556;2023-04-15T10:17:46;11.88;;;6.95;;
75774;SDS011;64505;51.458;7.556;2023-04-15T10:19:52;11.15;;;6.88;;
75774;SDS011;64505;51.458;7.556;2023-04-15T10:21:54;11.75;;;7.50;;
75774;SDS011;64505;51.458;7.556;2023-04-15T10:23:57;11.57;;;6.32;;
75774;SDS011;64505;51.458;7.556;2023-04-15T10:25:58;11.27;;;6.55;;
75774;SDS011;64505;51.458;7.556;2023-04-15T10:28:01;9.73;;;7.00;;
75774;SDS011;64505;51.458;7.556;2023-04-15T10:30:03;10.60;;;6.35;;
75774;SDS011;64505;51.458;7.556;2023-04-15T10:32:06;10.57;;;5.57;;
75774;SDS011;64505;51.458;7.556;2023-04-15T10:34:08;8.55;;;5.00;;
75774;SDS011;64505;51.458;7.556;2023-04-15T10:36:10;8.60;;;5.00;;
75774;SDS011;64505;51.458;7.556;2023-04-15T10:40:47;10.85;;;5.40;;
75774;SDS011;64505;51.458;7.556;2023-04-15T10:42:50;9.52;;;5.15;;
75774;SDS011;64505;51.458;7.556;2023-04-15T10:44:55;9.57;;;5.35;;
75774;SDS011;64505;51.458;7.556;2023-04-15T10:46:57;11.07;;;5.85;;
75774;SDS011;64505;51.458;7.556;2023-04-15T10:48:58;10.43;;;6.15;;
75774;SDS011;64505;51.458;7.556;2023-04-15T10:51:08;11.52;;;5.95;;
75774;SDS011;64505;51.458;7.556;2023-04-15T10:53:09;11.35;;;6.50;;
75774;SDS011;64505;51.458;7.556;2023-04-15T10:57:21;10.40;;;6.35;;
75774;SDS011;64505;51.458;7.556;2023-04-15T10:59:23;11.02;;;6.78;;
75774;SDS011;64505;51.458;7.556;2023-04-15T11:03:55;10.63;;;5.25;;
75774;SDS011;64505;51.458;7.556;2023-04-15T11:05:57;12.02;;;6.38;;
75774;SDS011;64505;51.458;7.556;2023-04-15T11:07:58;10.68;;;5.90;;
75774;SDS011;64505;51.458;7.556;2023-04-15T11:10:00;11.50;;;6.28;;
75774;SDS011;64505;51.458;7.556;2023-04-15T11:12:05;13.98;;;6.60;;
75774;SDS011;64505;51.458;7.556;2023-04-15T11:14:14;13.80;;;7.30;;
75774;SDS011;64505;51.458;7.556;2023-04-15T11:16:16;11.25;;;7.47;;
75774;SDS011;64505;51.458;7.556;2023-04-15T11:18:22;13.70;;;8.32;;
75774;SDS011;64505;51.458;7.556;2023-04-15T11:20:28;12.70;;;8.18;;
75774;SDS011;64505;51.458;7.556;2023-04-15T11:22:30;14.70;;;8.43;;
75774;SDS011;64505;51.458;7.556;2023-04-15T11:24:31;14.23;;;8.65;;
75774;SDS011;64505;51.458;7.556;2023-04-15T11:26:32;13.00;;;7.25;;
75774;SDS011;64505;51.458;7.556;2023-04-15T11:28:34;12.27;;;6.90;;
75774;SDS011;64505;51.458;7.556;2023-04-15T11:30:39;10.35;;;6.10;;
75774;SDS011;64505;51.458;7.556;2023-04-15T11:32:42;9.68;;;5.65;;
75774;SDS011;64505;51.458;7.556;2023-04-15T11:34:44;8.13;;;4.95;;
75774;SDS011;64505;51.458;7.556;2023-04-15T11:36:46;8.63;;;5.03;;
75774;SDS011;64505;51.458;7.556;2023-04-15T11:38:49;9.82;;;5.88;;
75774;SDS011;64505;51.458;7.556;2023-04-15T11:40:50;10.13;;;5.70;;
75774;SDS011;64505;51.458;7.556;2023-04-15T11:45:31;9.85;;;5.60;;
75774;SDS011;64505;51.458;7.556;2023-04-15T11:47:34;10.70;;;5.90;;
75774;SDS011;64505;51.458;7.556;2023-04-15T11:49:37;11.27;;;5.57;;
75774;SDS011;64505;51.458;7.556;2023-04-15T11:51:43;16.02;;;6.40;;
75774;SDS011;64505;51.458;7.556;2023-04-15T11:53:46;12.10;;;6.57;;
75774;SDS011;64505;51.458;7.556;2023-04-15T11:55:49;11.55;;;6.57;;
75774;SDS011;64505;51.458;7.556;2023-04-15T11:58:09;10.90;;;5.93;;
75774;SDS011;64505;51.458;7.556;2023-04-15T12:00:21;11.27;;;6.07;;
75774;SDS011;64505;51.458;7.556;2023-04-15T12:02:29;11.13;;;6.13;;
75774;SDS011;64505;51.458;7.556;2023-04-15T12:04:32;10.57;;;5.55;;
75774;SDS011;64505;51.458;7.556;2023-04-15T12:06:34;12.30;;;6.18;;
75774;SDS011;64505;51.458;7.556;2023-04-15T12:11:00;9.70;;;5.18;;
75774;SDS011;64505;51.458;7.556;2023-04-15T12:13:05;9.85;;;6.07;;
75774;SDS011;64505;51.458;7.556;2023-04-15T12:15:08;10.13;;;5.65;;
75774;SDS011;64505;51.458;7.556;2023-04-15T12:17:09;10.02;;;5.57;;
75774;SDS011;64505;51.458;7.556;2023-04-15T12:19:13;10.45;;;5.78;;